Time;durP1;ratioP1;P1;durP2;ratioP2;P2;SDS_P1;SDS_P2;PMS_P1;PMS_P2;Temp;Humidity;BMP_temperature;BMP_pressure;BME280_temperature;BME280_humidity;BME280_pressure;Samples;Min_cycle;Max_cycle;Signal;HPM_P1;HPM_P2
2022/04/15 00:00:27;;;;;;;12.73;6.60;;;;;;;;;;4914049;29;20048;-70
2022/04/15 00:02:53;;;;;;;15.40;6.82;;;;;;;;;;4914317;29;20052;-70
2022/04/15 00:05:36;;;;;;;11.98;6.45;;;;;;;;;;4913440;29;20048;-70
2022/04/15 00:08:09;;;;;;;10.63;6.53;;;;;;;;;;4913976;29;20056;-70
2022/04/15 00:10:35;;;;;;;10.55;6.28;;;;;;;;;;4898062;29;20044;-70
2022/04/15 00:13:05;;;;;;;9.57;6.35;;;;;;;;;;4913179;29;20144;-70
2022/04/15 00:15:31;;;;;;;12.65;6.07;;;;;;;;;;4914225;29;20492;-70
2022/04/15 00:17:57;;;;;;;14.52;6.25;;;;;;;;;;4913826;29;20044;-70
2022/04/15 00:20:24;;;;;;;13.60;6.57;;;;;;;;;;4897771;29;20376;-70
2022/04/15 00:22:52;;;;;;;13.77;6.68;;;;;;;;;;4913841;29;20096;-70
2022/04/15 00:25:18;;;;;;;12.88;6.05;;;;;;;;;;4915020;29;20051;-70
2022/04/15 00:27:44;;;;;;;11.02;6.07;;;;;;;;;;4964329;28;20039;-70
2022/04/15 00:30:10;;;;;;;12.18;6.10;;;;;;;;;;4964659;28;20088;-70
2022/04/15 00:32:37;;;;;;;15.07;6.30;;;;;;;;;;4964649;28;20437;-70
2022/04/15 00:35:03;;;;;;;15.25;6.57;;;;;;;;;;4966779;28;20047;-70
2022/04/15 00:37:31;;;;;;;10.13;5.82;;;;;;;;;;4968746;28;20036;-70
2022/04/15 00:39:57;;;;;;;9.55;5.40;;;;;;;;;;4968473;28;20043;-70
2022/04/15 00:42:23;;;;;;;11.50;6.00;;;;;;;;;;4967691;28;20051;-70
2022/04/15 00:45:00;;;;;;;12.45;6.30;;;;;;;;;;4968369;28;20040;-70
2022/04/15 00:47:45;;;;;;;11.27;6.07;;;;;;;;;;4968445;28;20051;-70
2022/04/15 00:50:11;;;;;;;14.20;6.15;;;;;;;;;;4967900;28;20047;-70
2022/04/15 00:52:38;;;;;;;11.43;5.97;;;;;;;;;;4968280;28;20126;-70
2022/04/15 00:55:05;;;;;;;13.13;6.32;;;;;;;;;;4968155;28;20454;-70
2022/04/15 00:57:33;;;;;;;10.88;6.90;;;;;;;;;;4967354;28;20062;-70
2022/04/15 01:00:01;;;;;;;16.60;6.13;;;;;;;;;;4968253;28;20050;-70
2022/04/15 01:02:28;;;;;;;9.55;5.95;;;;;;;;;;4968058;28;20052;-70
2022/04/15 01:04:55;;;;;;;10.70;5.53;;;;;;;;;;4967321;28;20375;-70
2022/04/15 01:07:23;;;;;;;8.38;6.47;;;;;;;;;;4937106;29;20814;-70
2022/04/15 01:09:52;;;;;;;12.90;6.40;;;;;;;;;;4936108;29;20032;-70
2022/04/15 01:12:18;;;;;;;9.77;6.55;;;;;;;;;;4967148;28;20054;-70
2022/04/15 01:14:45;;;;;;;11.13;6.07;;;;;;;;;;4967862;28;20553;-70
2022/04/15 01:17:11;;;;;;;14.82;7.18;;;;;;;;;;4968031;28;20054;-70
2022/04/15 01:19:38;;;;;;;11.65;7.22;;;;;;;;;;4967351;28;20043;-70
2022/04/15 01:22:08;;;;;;;12.05;7.25;;;;;;;;;;4967690;28;20102;-70
2022/04/15 01:24:38;;;;;;;13.52;7.53;;;;;;;;;;4967867;28;20040;-70
2022/04/15 01:27:05;;;;;;;14.43;6.68;;;;;;;;;;4954925;28;20039;-70
2022/04/15 01:29:37;;;;;;;11.55;6.70;;;;;;;;;;4935570;29;20044;-70
2022/04/15 01:32:05;;;;;;;13.25;7.93;;;;;;;;;;4935211;29;20078;-70
2022/04/15 01:34:31;;;;;;;11.00;7.50;;;;;;;;;;4934931;29;20048;-70
2022/04/15 01:36:58;;;;;;;12.15;7.35;;;;;;;;;;4935179;29;20035;-70
2022/04/15 01:39:24;;;;;;;11.35;6.07;;;;;;;;;;4935512;29;20044;-70
2022/04/15 01:41:50;;;;;;;11.50;7.13;;;;;;;;;;4919189;29;20522;-70
2022/04/15 01:44:17;;;;;;;14.70;7.63;;;;;;;;;;4935621;29;20052;-70
2022/04/15 01:46:44;;;;;;;17.80;7.45;;;;;;;;;;4934518;29;20051;-70
2022/04/15 01:49:10;;;;;;;11.68;7.15;;;;;;;;;;4934500;29;20130;-70
2022/04/15 01:51:37;;;;;;;11.30;6.78;;;;;;;;;;4935061;29;20577;-70
2022/04/15 01:54:03;;;;;;;13.82;7.00;;;;;;;;;;4935093;29;20075;-70
2022/04/15 01:56:30;;;;;;;9.98;6.82;;;;;;;;;;4934814;29;20125;-70
2022/04/15 01:58:56;;;;;;;10.43;6.90;;;;;;;;;;4934909;29;20050;-70
2022/04/15 02:01:22;;;;;;;12.00;7.20;;;;;;;;;;4934927;29;20059;-70
2022/04/15 02:03:49;;;;;;;14.52;7.45;;;;;;;;;;4934181;29;20039;-70
2022/04/15 02:06:15;;;;;;;14.63;7.32;;;;;;;;;;4935126;29;20048;-70
2022/04/15 02:08:41;;;;;;;14.95;7.32;;;;;;;;;;4934782;29;20225;-70
2022/04/15 02:11:07;;;;;;;11.45;7.28;;;;;;;;;;4934365;29;20126;-70
2022/04/15 02:13:33;;;;;;;12.32;7.22;;;;;;;;;;4919220;29;20172;-70
2022/04/15 02:16:00;;;;;;;10.80;7.43;;;;;;;;;;4935051;29;20051;-70
2022/04/15 02:18:26;;;;;;;11.93;6.78;;;;;;;;;;4933915;29;20130;-70
2022/04/15 02:20:55;;;;;;;12.13;6.75;;;;;;;;;;4934863;29;20374;-70
2022/04/15 02:23:21;;;;;;;11.18;7.18;;;;;;;;;;4934579;29;20043;-70
2022/04/15 02:25:47;;;;;;;9.25;6.20;;;;;;;;;;4935155;29;20050;-70
2022/04/15 02:28:13;;;;;;;12.88;7.32;;;;;;;;;;4934645;29;20036;-70
2022/04/15 02:30:39;;;;;;;12.32;6.75;;;;;;;;;;4934550;29;20099;-70
2022/04/15 02:33:05;;;;;;;16.52;7.47;;;;;;;;;;4933929;29;20039;-70
2022/04/15 02:35:31;;;;;;;15.57;7.68;;;;;;;;;;4934379;29;20051;-70
2022/04/15 02:37:57;;;;;;;15.25;6.63;;;;;;;;;;4934076;29;20103;-70
2022/04/15 02:40:23;;;;;;;11.35;6.78;;;;;;;;;;4934345;29;20039;-70
2022/04/15 02:42:49;;;;;;;11.88;7.15;;;;;;;;;;4934994;29;20055;-70
2022/04/15 02:45:15;;;;;;;11.50;6.80;;;;;;;;;;4934092;29;20083;-70
2022/04/15 02:47:41;;;;;;;15.40;7.60;;;;;;;;;;4934159;29;20106;-70
2022/04/15 02:50:08;;;;;;;9.55;6.93;;;;;;;;;;4933504;29;20114;-70
2022/04/15 02:52:35;;;;;;;13.90;7.68;;;;;;;;;;4918239;29;20146;-70
2022/04/15 02:55:01;;;;;;;17.15;7.57;;;;;;;;;;4935295;29;20075;-70
2022/04/15 02:57:27;;;;;;;12.35;7.28;;;;;;;;;;4932951;29;20089;-70
2022/04/15 02:59:53;;;;;;;15.00;7.10;;;;;;;;;;4933819;29;20055;-70
2022/04/15 03:02:19;;;;;;;15.07;8.10;;;;;;;;;;4933794;29;20162;-70
2022/04/15 03:04:45;;;;;;;12.80;7.53;;;;;;;;;;4933297;29;20051;-70
2022/04/15 03:07:11;;;;;;;13.10;7.38;;;;;;;;;;4933593;29;20069;-70
2022/04/15 03:09:37;;;;;;;12.88;6.97;;;;;;;;;;4917907;29;20051;-70
2022/04/15 03:12:04;;;;;;;16.13;7.10;;;;;;;;;;4933065;29;20052;-70
2022/04/15 03:14:30;;;;;;;9.07;6.70;;;;;;;;;;4933675;29;20047;-70
2022/04/15 03:16:56;;;;;;;13.88;7.95;;;;;;;;;;4933508;29;20075;-70
2022/04/15 03:19:22;;;;;;;11.02;7.30;;;;;;;;;;4933127;29;20511;-70
2022/04/15 03:21:48;;;;;;;11.55;7.03;;;;;;;;;;4933764;29;20059;-70
2022/04/15 03:24:14;;;;;;;12.63;7.30;;;;;;;;;;4933775;29;20499;-70
2022/04/15 03:26:40;;;;;;;13.32;7.18;;;;;;;;;;4932976;29;20600;-70
2022/04/15 03:29:06;;;;;;;13.55;7.70;;;;;;;;;;4965587;28;20044;-70
2022/04/15 03:31:33;;;;;;;15.63;7.38;;;;;;;;;;4965497;28;20539;-70
2022/04/15 03:33:59;;;;;;;15.77;7.53;;;;;;;;;;4964770;28;20044;-70
2022/04/15 03:36:25;;;;;;;14.52;8.50;;;;;;;;;;4934704;29;20072;-70
2022/04/15 03:38:51;;;;;;;12.75;7.32;;;;;;;;;;4933433;29;20130;-70
2022/04/15 03:41:18;;;;;;;14.52;7.72;;;;;;;;;;4964712;28;20052;-70
2022/04/15 03:43:44;;;;;;;10.23;7.53;;;;;;;;;;4965227;28;20048;-70
2022/04/15 03:46:10;;;;;;;14.98;7.72;;;;;;;;;;4965568;28;20047;-70
2022/04/15 03:48:36;;;;;;;13.65;7.30;;;;;;;;;;4964536;28;20058;-70
2022/04/15 03:51:02;;;;;;;10.52;7.22;;;;;;;;;;4965156;28;20052;-70
2022/04/15 03:53:28;;;;;;;9.93;7.40;;;;;;;;;;4949418;29;20071;-70
2022/04/15 03:55:54;;;;;;;14.27;6.78;;;;;;;;;;4964360;28;20086;-70
2022/04/15 03:58:20;;;;;;;10.73;6.90;;;;;;;;;;4964926;28;20078;-70
2022/04/15 04:00:46;;;;;;;11.80;6.68;;;;;;;;;;4965006;28;20047;-70
2022/04/15 04:03:14;;;;;;;16.10;6.93;;;;;;;;;;4948246;29;20082;-70
2022/04/15 04:05:40;;;;;;;11.68;6.82;;;;;;;;;;4965417;28;20048;-70
2022/04/15 04:08:06;;;;;;;13.15;7.00;;;;;;;;;;4949767;28;20175;-70
2022/04/15 04:10:33;;;;;;;12.77;6.85;;;;;;;;;;4970766;28;20162;-70
2022/04/15 04:12:59;;;;;;;15.63;6.97;;;;;;;;;;4939607;29;20538;-70
2022/04/15 04:15:25;;;;;;;11.20;7.03;;;;;;;;;;4971314;28;20375;-70
2022/04/15 04:17:51;;;;;;;13.77;7.13;;;;;;;;;;4970836;28;20051;-70
2022/04/15 04:20:17;;;;;;;14.77;7.43;;;;;;;;;;4971342;28;20095;-70
2022/04/15 04:22:44;;;;;;;10.07;6.60;;;;;;;;;;4939351;29;20050;-70
2022/04/15 04:25:10;;;;;;;13.43;7.10;;;;;;;;;;4970600;28;20120;-70
2022/04/15 04:27:37;;;;;;;11.88;7.35;;;;;;;;;;4920114;29;20095;-70
2022/04/15 04:30:04;;;;;;;12.93;7.55;;;;;;;;;;4920130;29;20762;-70
2022/04/15 04:32:30;;;;;;;11.20;7.65;;;;;;;;;;4919152;29;20111;-70
2022/04/15 04:34:56;;;;;;;13.02;7.47;;;;;;;;;;4920242;29;20507;-70
2022/04/15 04:37:22;;;;;;;10.02;6.95;;;;;;;;;;4920124;29;20047;-70
2022/04/15 04:39:48;;;;;;;15.20;7.97;;;;;;;;;;4919556;29;20459;-70
2022/04/15 04:42:14;;;;;;;11.82;8.23;;;;;;;;;;4920197;29;20055;-70
2022/04/15 04:44:41;;;;;;;10.30;7.57;;;;;;;;;;4904599;29;20040;-70
2022/04/15 04:47:08;;;;;;;14.32;7.78;;;;;;;;;;4919339;29;20051;-70
2022/04/15 04:49:34;;;;;;;12.27;7.10;;;;;;;;;;4920074;29;20047;-70
2022/04/15 04:52:00;;;;;;;13.00;7.97;;;;;;;;;;4919924;29;20408;-70
2022/04/15 04:54:26;;;;;;;11.93;7.72;;;;;;;;;;4919194;29;20447;-70
2022/04/15 04:56:52;;;;;;;14.45;8.48;;;;;;;;;;4919647;29;20470;-70
2022/04/15 04:59:18;;;;;;;12.82;8.13;;;;;;;;;;4919988;29;20075;-70
2022/04/15 05:01:44;;;;;;;15.40;8.40;;;;;;;;;;4918925;29;20084;-70
2022/04/15 05:04:10;;;;;;;15.18;8.73;;;;;;;;;;4904047;29;20104;-70
2022/04/15 05:06:36;;;;;;;14.93;9.15;;;;;;;;;;4920007;29;20044;-70
2022/04/15 05:09:02;;;;;;;13.73;9.23;;;;;;;;;;4918787;29;20040;-71
2022/04/15 05:11:28;;;;;;;12.45;7.40;;;;;;;;;;4919839;29;20040;-70
2022/04/15 05:13:54;;;;;;;11.95;7.90;;;;;;;;;;4919815;29;20042;-70
2022/04/15 05:16:20;;;;;;;13.93;7.32;;;;;;;;;;4919132;29;20051;-70
2022/04/15 05:18:47;;;;;;;11.98;7.50;;;;;;;;;;4919732;29;20103;-70
2022/04/15 05:21:13;;;;;;;10.82;7.45;;;;;;;;;;4916872;29;20122;-70
2022/04/15 05:23:39;;;;;;;11.32;6.80;;;;;;;;;;4900582;29;20146;-70
2022/04/15 05:26:05;;;;;;;8.43;6.68;;;;;;;;;;4923830;29;20048;-70
2022/04/15 05:28:32;;;;;;;9.23;6.50;;;;;;;;;;4967527;28;20102;-70
2022/04/15 05:30:58;;;;;;;7.65;6.40;;;;;;;;;;4950919;28;20179;-70
2022/04/15 05:33:24;;;;;;;11.38;6.82;;;;;;;;;;4951758;29;20498;-69
2022/04/15 05:35:50;;;;;;;8.32;6.82;;;;;;;;;;4967572;28;20123;-69
2022/04/15 05:38:18;;;;;;;9.85;6.85;;;;;;;;;;4966820;28;20531;-69
2022/04/15 05:40:44;;;;;;;10.45;7.53;;;;;;;;;;4967707;28;20052;-69
2022/04/15 05:43:10;;;;;;;15.13;9.60;;;;;;;;;;4966959;28;20051;-69
2022/04/15 05:45:36;;;;;;;9.23;6.72;;;;;;;;;;4942253;29;20043;-62
2022/04/15 05:48:02;;;;;;;9.90;6.20;;;;;;;;;;4955360;29;20474;-70
2022/04/15 05:50:28;;;;;;;9.52;6.85;;;;;;;;;;4954017;29;20058;-72
2022/04/15 05:52:54;;;;;;;7.47;5.55;;;;;;;;;;4953577;29;20039;-71
2022/04/15 05:55:20;;;;;;;7.07;5.25;;;;;;;;;;4938516;29;20047;-68
2022/04/15 05:57:46;;;;;;;6.97;5.38;;;;;;;;;;4953794;29;20683;-70
2022/04/15 06:00:12;;;;;;;8.15;5.60;;;;;;;;;;4953759;29;20178;-71
2022/04/15 06:02:39;;;;;;;9.65;5.60;;;;;;;;;;4955047;29;20054;-70
2022/04/15 06:05:05;;;;;;;7.68;5.30;;;;;;;;;;4951155;29;20062;-68
2022/04/15 06:07:31;;;;;;;7.82;5.25;;;;;;;;;;4934751;29;20483;-70
2022/04/15 06:09:58;;;;;;;8.02;5.30;;;;;;;;;;4943599;29;20110;-70
2022/04/15 06:12:54;;;;;;;6.55;4.55;;;;;;;;;;4953914;29;20047;-70
2022/04/15 06:15:18;;;;;;;7.78;4.47;;;;;;;;;;4953299;29;20050;-71
2022/04/15 06:17:44;;;;;;;6.60;4.60;;;;;;;;;;4953760;29;20041;-68
2022/04/15 06:20:11;;;;;;;6.68;4.80;;;;;;;;;;4955271;29;20074;-71
2022/04/15 06:22:37;;;;;;;7.20;4.88;;;;;;;;;;4953584;29;20043;-69
2022/04/15 06:25:04;;;;;;;5.47;4.20;;;;;;;;;;4953385;29;20554;-71
2022/04/15 06:27:30;;;;;;;7.28;5.28;;;;;;;;;;4929857;29;20816;-68
2022/04/15 06:29:56;;;;;;;7.18;4.82;;;;;;;;;;4964744;28;20051;-73
2022/04/15 06:32:22;;;;;;;7.63;4.68;;;;;;;;;;4952872;28;20047;-71
2022/04/15 06:34:48;;;;;;;5.35;4.20;;;;;;;;;;4954202;29;20110;-70
2022/04/15 06:37:14;;;;;;;7.47;4.63;;;;;;;;;;4952645;29;20043;-69
2022/04/15 06:39:40;;;;;;;7.65;4.28;;;;;;;;;;4952193;29;20127;-70
2022/04/15 06:42:06;;;;;;;7.45;4.00;;;;;;;;;;4953050;28;20047;-70
2022/04/15 06:44:36;;;;;;;6.57;4.85;;;;;;;;;;4936799;29;20051;-70
2022/04/15 06:47:02;;;;;;;7.85;4.32;;;;;;;;;;4936494;29;20529;-69
2022/04/15 06:49:28;;;;;;;6.32;4.50;;;;;;;;;;4951945;29;20442;-66
2022/04/15 06:51:54;;;;;;;6.95;4.53;;;;;;;;;;4952335;29;20075;-66
2022/04/15 06:54:20;;;;;;;7.72;4.65;;;;;;;;;;4953495;29;20043;-66
2022/04/15 06:56:46;;;;;;;8.68;4.63;;;;;;;;;;4951967;29;20039;-69
2022/04/15 06:59:12;;;;;;;7.03;4.78;;;;;;;;;;4950352;29;20054;-67
2022/04/15 07:01:38;;;;;;;6.78;4.78;;;;;;;;;;4952109;28;20098;-68
2022/04/15 07:04:06;;;;;;;7.93;5.00;;;;;;;;;;4954256;28;20126;-66
2022/04/15 07:06:32;;;;;;;8.10;5.00;;;;;;;;;;4953627;28;20047;-68
2022/04/15 07:08:58;;;;;;;9.65;5.63;;;;;;;;;;4953685;29;20039;-70
2022/04/15 07:11:24;;;;;;;10.38;5.43;;;;;;;;;;4952019;29;20047;-71
2022/04/15 07:13:50;;;;;;;6.32;5.20;;;;;;;;;;4951836;29;20179;-70
2022/04/15 07:16:16;;;;;;;10.07;5.80;;;;;;;;;;4952203;29;20039;-72
2022/04/15 07:18:42;;;;;;;9.98;6.35;;;;;;;;;;4952187;29;20054;-68
2022/04/15 07:21:09;;;;;;;8.73;5.95;;;;;;;;;;4953826;28;20047;-68
2022/04/15 07:23:35;;;;;;;8.15;6.22;;;;;;;;;;4951090;29;20061;-68
2022/04/15 07:26:01;;;;;;;10.07;6.93;;;;;;;;;;4952595;29;20047;-68
2022/04/15 07:28:27;;;;;;;12.82;6.93;;;;;;;;;;4953387;29;20047;-74
2022/04/15 07:30:53;;;;;;;10.68;6.90;;;;;;;;;;4951437;29;20126;-70
2022/04/15 07:33:19;;;;;;;12.73;6.97;;;;;;;;;;4953365;29;20039;-69
2022/04/15 07:35:46;;;;;;;10.55;6.85;;;;;;;;;;4952967;28;20047;-69
2022/04/15 07:38:12;;;;;;;11.30;7.28;;;;;;;;;;4949690;29;20039;-70
2022/04/15 07:40:38;;;;;;;12.60;7.72;;;;;;;;;;4951917;29;20778;-69
2022/04/15 07:43:04;;;;;;;15.48;8.30;;;;;;;;;;4952938;28;20039;-70
2022/04/15 07:45:30;;;;;;;15.45;8.00;;;;;;;;;;4944478;29;20035;-70
2022/04/15 07:47:56;;;;;;;16.95;10.23;;;;;;;;;;4931484;29;20450;-68
2022/04/15 07:50:24;;;;;;;17.85;9.75;;;;;;;;;;4942279;29;20521;-67
2022/04/15 07:52:57;;;;;;;13.18;8.65;;;;;;;;;;4942626;29;20051;-70
2022/04/15 07:55:25;;;;;;;12.88;7.35;;;;;;;;;;4925408;29;20127;-69
2022/04/15 07:57:51;;;;;;;13.48;9.32;;;;;;;;;;4946896;29;20090;-71
2022/04/15 08:00:17;;;;;;;13.73;9.27;;;;;;;;;;4923703;29;20062;-70
2022/04/15 08:02:43;;;;;;;14.82;8.50;;;;;;;;;;4950907;28;20051;-73
2022/04/15 08:05:10;;;;;;;17.60;9.38;;;;;;;;;;4941547;29;20130;-69
2022/04/15 08:07:36;;;;;;;11.77;8.02;;;;;;;;;;4942881;29;20055;-66
2022/04/15 08:10:03;;;;;;;13.27;9.00;;;;;;;;;;4934336;29;20069;-67
2022/04/15 08:12:29;;;;;;;12.70;8.55;;;;;;;;;;4935369;29;20064;-65
2022/04/15 08:14:55;;;;;;;15.80;9.60;;;;;;;;;;4942527;29;20042;-65
2022/04/15 08:17:23;;;;;;;14.57;9.63;;;;;;;;;;4945455;29;20070;-66
2022/04/15 08:19:49;;;;;;;15.18;8.88;;;;;;;;;;4933409;29;20122;-65
2022/04/15 08:22:15;;;;;;;24.73;10.82;;;;;;;;;;4943752;29;20126;-63
2022/04/15 08:24:42;;;;;;;19.95;10.55;;;;;;;;;;4945211;29;20202;-64
2022/04/15 08:27:11;;;;;;;20.15;10.68;;;;;;;;;;4939292;29;20063;-64
2022/04/15 08:29:42;;;;;;;20.60;9.82;;;;;;;;;;4949944;28;20617;-65
2022/04/15 08:32:09;;;;;;;19.63;10.25;;;;;;;;;;4947576;29;20051;-66
2022/04/15 08:34:38;;;;;;;15.15;9.88;;;;;;;;;;4965534;28;20095;-64
2022/04/15 08:37:04;;;;;;;16.60;9.88;;;;;;;;;;4950392;29;20632;-66
2022/04/15 08:39:30;;;;;;;18.73;10.27;;;;;;;;;;4943624;29;20179;-64
2022/04/15 08:41:57;;;;;;;14.75;9.68;;;;;;;;;;4938228;29;20044;-65
2022/04/15 08:44:25;;;;;;;16.52;9.63;;;;;;;;;;4933404;29;20055;-64
2022/04/15 08:46:51;;;;;;;16.60;10.07;;;;;;;;;;4920798;29;20387;-68
2022/04/15 08:49:19;;;;;;;16.23;9.48;;;;;;;;;;4926821;29;20048;-65
2022/04/15 08:51:48;;;;;;;15.77;8.55;;;;;;;;;;4940675;29;20059;-67
2022/04/15 08:54:14;;;;;;;17.60;9.57;;;;;;;;;;4928820;28;20563;-66
2022/04/15 08:56:40;;;;;;;15.88;10.20;;;;;;;;;;4942609;29;20039;-65
2022/04/15 08:59:06;;;;;;;18.55;9.57;;;;;;;;;;4938755;29;20039;-66
2022/04/15 09:01:33;;;;;;;18.65;10.77;;;;;;;;;;4953305;29;20114;-66
2022/04/15 09:04:00;;;;;;;19.92;11.27;;;;;;;;;;4950487;29;20053;-64
2022/04/15 09:06:31;;;;;;;21.58;12.25;;;;;;;;;;4950836;28;20054;-64
2022/04/15 09:09:04;;;;;;;18.30;9.57;;;;;;;;;;4947843;28;20058;-63
2022/04/15 09:11:35;;;;;;;22.13;12.00;;;;;;;;;;4934529;29;20110;-65
2022/04/15 09:14:03;;;;;;;18.08;9.95;;;;;;;;;;4933442;29;20124;-65
2022/04/15 09:16:30;;;;;;;17.33;9.38;;;;;;;;;;4934669;29;20500;-65
2022/04/15 09:18:57;;;;;;;14.32;9.23;;;;;;;;;;4934802;29;20051;-64
2022/04/15 09:21:24;;;;;;;13.98;8.77;;;;;;;;;;4940247;29;20564;-65
2022/04/15 09:23:54;;;;;;;16.85;8.77;;;;;;;;;;4947990;29;20374;-65
2022/04/15 09:26:21;;;;;;;12.25;8.15;;;;;;;;;;4946295;29;20051;-66
2022/04/15 09:28:48;;;;;;;12.52;7.63;;;;;;;;;;4954383;29;20382;-66
2022/04/15 09:31:15;;;;;;;13.45;8.05;;;;;;;;;;4946372;29;20055;-65
2022/04/15 09:33:51;;;;;;;13.75;8.13;;;;;;;;;;4955155;29;20051;-65
2022/04/15 09:36:23;;;;;;;12.38;7.78;;;;;;;;;;4946134;28;20054;-65
2022/04/15 09:38:50;;;;;;;17.90;8.70;;;;;;;;;;4940437;29;20042;-65
2022/04/15 09:41:25;;;;;;;11.50;7.55;;;;;;;;;;4954613;28;20171;-66
2022/04/15 09:43:55;;;;;;;15.77;7.78;;;;;;;;;;4946963;29;20073;-64
2022/04/15 09:46:21;;;;;;;14.98;7.78;;;;;;;;;;4944171;29;20077;-65
2022/04/15 09:48:58;;;;;;;13.15;6.80;;;;;;;;;;4933574;29;20047;-65
2022/04/15 09:51:24;;;;;;;8.80;6.32;;;;;;;;;;4932050;29;20065;-64
2022/04/15 09:53:55;;;;;;;11.25;5.72;;;;;;;;;;4950000;29;20054;-64
2022/04/15 09:56:23;;;;;;;9.98;6.35;;;;;;;;;;4949850;28;20410;-65
2022/04/15 09:58:54;;;;;;;9.90;6.03;;;;;;;;;;4948733;28;20044;-65
2022/04/15 10:01:23;;;;;;;7.18;6.07;;;;;;;;;;4953786;28;20066;-67
2022/04/15 10:03:50;;;;;;;11.43;6.22;;;;;;;;;;4951223;29;20058;-64
2022/04/15 10:06:17;;;;;;;8.60;5.93;;;;;;;;;;4935458;28;20062;-64
2022/04/15 10:08:44;;;;;;;6.35;5.25;;;;;;;;;;4944904;29;20058;-64
2022/04/15 10:11:10;;;;;;;7.72;5.65;;;;;;;;;;4953945;29;20051;-64
2022/04/15 10:13:37;;;;;;;8.00;6.20;;;;;;;;;;4948936;29;20031;-66
2022/04/15 10:16:03;;;;;;;10.70;5.57;;;;;;;;;;4950798;29;20039;-67
2022/04/15 10:18:29;;;;;;;12.57;6.18;;;;;;;;;;4947466;28;20062;-66
2022/04/15 10:20:56;;;;;;;7.57;5.97;;;;;;;;;;4944685;29;20521;-66
2022/04/15 10:23:22;;;;;;;10.00;5.88;;;;;;;;;;4952666;29;20114;-66
2022/04/15 10:25:50;;;;;;;8.65;6.07;;;;;;;;;;4944132;29;20730;-66
2022/04/15 10:28:20;;;;;;;11.15;5.88;;;;;;;;;;4963304;28;20062;-66
2022/04/15 10:31:07;;;;;;;11.15;5.78;;;;;;;;;;4951968;29;20063;-67
2022/04/15 10:33:34;;;;;;;10.55;5.80;;;;;;;;;;4965961;28;20042;-67
2022/04/15 10:36:01;;;;;;;6.15;5.43;;;;;;;;;;4951634;29;20051;-66
2022/04/15 10:38:27;;;;;;;7.35;5.20;;;;;;;;;;4951476;29;20159;-66
2022/04/15 10:40:56;;;;;;;10.88;5.55;;;;;;;;;;4946028;29;20047;-66
2022/04/15 10:43:23;;;;;;;8.48;5.63;;;;;;;;;;4948370;28;20055;-67
2022/04/15 10:45:51;;;;;;;8.68;6.03;;;;;;;;;;4950686;29;20474;-68
2022/04/15 10:48:37;;;;;;;13.45;5.75;;;;;;;;;;4951387;29;20539;-66
2022/04/15 10:51:21;;;;;;;8.52;5.78;;;;;;;;;;4949079;29;20047;-66
2022/04/15 10:53:47;;;;;;;8.20;5.70;;;;;;;;;;4952491;29;20054;-66
2022/04/15 10:56:14;;;;;;;8.65;5.38;;;;;;;;;;4945985;29;20051;-67
2022/04/15 11:01:13;;;;;;;9.70;5.15;;;;;;;;;;4937964;29;20401;-68
2022/04/15 11:01:35;;;;;;;8.93;5.35;;;;;;;;;;4939174;28;20063;-72
2022/04/15 11:04:06;;;;;;;8.38;5.57;;;;;;;;;;4925980;29;20066;-71
2022/04/15 11:06:33;;;;;;;9.43;5.40;;;;;;;;;;4948017;29;20057;-70
2022/04/15 11:09:13;;;;;;;8.57;5.22;;;;;;;;;;4949993;29;20051;-71
2022/04/15 11:11:41;;;;;;;8.27;5.10;;;;;;;;;;4934013;29;20106;-72
2022/04/15 11:14:08;;;;;;;7.10;4.90;;;;;;;;;;4933391;29;20451;-71
2022/04/15 11:16:38;;;;;;;11.60;5.18;;;;;;;;;;4949250;28;20048;-71
2022/04/15 11:19:05;;;;;;;9.43;5.40;;;;;;;;;;4930695;29;20482;-73
2022/04/15 11:21:36;;;;;;;9.05;5.70;;;;;;;;;;4915579;29;20048;-71
2022/04/15 11:24:05;;;;;;;7.60;5.35;;;;;;;;;;4947752;29;20051;-69
2022/04/15 11:26:32;;;;;;;11.20;5.13;;;;;;;;;;4925615;29;20664;-70
2022/04/15 11:29:00;;;;;;;6.95;5.18;;;;;;;;;;4951621;29;20043;-70
2022/04/15 11:31:27;;;;;;;10.23;5.75;;;;;;;;;;4947069;29;20562;-73
2022/04/15 11:33:54;;;;;;;10.65;5.85;;;;;;;;;;4930634;29;20076;-69
2022/04/15 11:36:20;;;;;;;9.75;6.00;;;;;;;;;;4944242;29;20043;-73
2022/04/15 11:38:50;;;;;;;13.35;5.90;;;;;;;;;;4951865;29;20043;-70
2022/04/15 11:41:20;;;;;;;9.93;6.18;;;;;;;;;;4950639;29;20061;-69
2022/04/15 11:43:59;;;;;;;7.40;5.55;;;;;;;;;;4945111;28;20130;-70
2022/04/15 11:46:46;;;;;;;8.88;5.82;;;;;;;;;;4951245;29;20501;-71
2022/04/15 11:49:13;;;;;;;8.57;5.03;;;;;;;;;;4965983;28;20058;-69
2022/04/15 11:51:39;;;;;;;12.00;6.28;;;;;;;;;;4934616;29;20478;-69
2022/04/15 11:54:05;;;;;;;9.60;6.05;;;;;;;;;;4946402;29;20043;-68
2022/04/15 11:56:34;;;;;;;8.77;6.03;;;;;;;;;;4950133;29;20132;-68
2022/04/15 11:59:00;;;;;;;10.48;6.50;;;;;;;;;;4947911;29;20054;-66
2022/04/15 12:01:27;;;;;;;13.15;6.07;;;;;;;;;;4951138;28;20122;-70
2022/04/15 12:03:53;;;;;;;9.60;5.75;;;;;;;;;;4941992;29;20046;-70
2022/04/15 12:06:20;;;;;;;6.85;5.35;;;;;;;;;;4948287;28;20044;-68
2022/04/15 12:08:46;;;;;;;23.55;6.93;;;;;;;;;;4933200;29;20047;-66
2022/04/15 12:11:14;;;;;;;10.13;6.13;;;;;;;;;;4939618;29;20055;-70
2022/04/15 12:13:40;;;;;;;6.88;4.95;;;;;;;;;;4924898;29;20080;-70
2022/04/15 12:16:06;;;;;;;8.30;5.38;;;;;;;;;;4931789;29;20039;-70
2022/04/15 12:18:33;;;;;;;9.98;5.50;;;;;;;;;;4935977;29;20043;-70
2022/04/15 12:20:59;;;;;;;9.43;5.72;;;;;;;;;;4953867;28;20680;-68
2022/04/15 12:23:26;;;;;;;8.32;5.18;;;;;;;;;;4933297;29;20459;-69
2022/04/15 12:26:06;;;;;;;7.85;5.50;;;;;;;;;;4939733;29;20043;-68
2022/04/15 12:31:33;;;;;;;7.68;4.93;;;;;;;;;;4950879;29;20040;-68
2022/04/15 12:34:03;;;;;;;6.70;5.22;;;;;;;;;;4938885;29;20086;-67
2022/04/15 12:36:40;;;;;;;5.65;5.00;;;;;;;;;;4936051;29;20368;-73
2022/04/15 12:39:07;;;;;;;5.95;4.82;;;;;;;;;;4920206;29;20081;-71
2022/04/15 12:41:42;;;;;;;6.40;4.97;;;;;;;;;;4943247;29;20067;-68
2022/04/15 12:44:15;;;;;;;8.73;5.70;;;;;;;;;;4936474;29;20102;-69
2022/04/15 12:46:43;;;;;;;5.78;4.97;;;;;;;;;;4952294;29;20047;-69
2022/04/15 12:49:45;;;;;;;6.78;4.47;;;;;;;;;;4931998;29;20043;-73
2022/04/15 12:52:15;;;;;;;7.88;5.80;;;;;;;;;;4896460;29;20052;-73
2022/04/15 12:55:00;;;;;;;5.70;4.45;;;;;;;;;;4942797;29;20059;-72
2022/04/15 12:57:37;;;;;;;8.60;5.05;;;;;;;;;;4934967;29;20406;-70
2022/04/15 13:00:07;;;;;;;7.22;5.03;;;;;;;;;;4936394;29;20039;-68
2022/04/15 13:02:34;;;;;;;8.13;5.20;;;;;;;;;;4969945;28;20055;-66
2022/04/15 13:05:01;;;;;;;7.68;5.65;;;;;;;;;;4947978;28;20396;-68
2022/04/15 13:07:28;;;;;;;8.00;5.45;;;;;;;;;;4949574;29;20458;-67
2022/04/15 13:09:54;;;;;;;9.60;6.55;;;;;;;;;;4921876;29;20051;-69
2022/04/15 13:12:20;;;;;;;9.27;5.80;;;;;;;;;;4930336;29;20040;-71
2022/04/15 13:14:47;;;;;;;8.55;5.97;;;;;;;;;;4933078;29;20123;-72
2022/04/15 13:17:14;;;;;;;8.23;5.57;;;;;;;;;;4936055;29;20043;-75
2022/04/15 13:19:41;;;;;;;7.57;5.82;;;;;;;;;;4933930;29;20043;-72
2022/04/15 13:22:07;;;;;;;8.00;5.68;;;;;;;;;;4951592;28;20043;-72
2022/04/15 13:24:34;;;;;;;12.65;6.07;;;;;;;;;;4944253;29;20054;-71
2022/04/15 13:27:00;;;;;;;8.38;6.50;;;;;;;;;;4936201;29;20382;-75
2022/04/15 13:29:26;;;;;;;7.68;5.47;;;;;;;;;;4944242;29;20050;-67
2022/04/15 13:31:52;;;;;;;7.13;5.50;;;;;;;;;;4937803;29;20368;-70
2022/04/15 13:34:19;;;;;;;7.68;5.13;;;;;;;;;;4917873;29;20103;-72
2022/04/15 13:36:46;;;;;;;10.07;5.95;;;;;;;;;;4938320;29;20058;-70
2022/04/15 13:39:12;;;;;;;8.68;5.60;;;;;;;;;;4940810;29;20047;-73
2022/04/15 13:41:38;;;;;;;9.65;5.95;;;;;;;;;;4952406;28;20111;-71
2022/04/15 13:44:04;;;;;;;9.40;6.43;;;;;;;;;;4955328;28;20441;-69
2022/04/15 13:46:30;;;;;;;8.07;6.07;;;;;;;;;;4954331;29;20082;-63
2022/04/15 13:48:58;;;;;;;10.68;5.90;;;;;;;;;;4955237;29;20039;-65
2022/04/15 13:51:25;;;;;;;9.25;5.57;;;;;;;;;;4954093;28;20410;-65
2022/04/15 13:56:38;;;;;;;8.82;5.75;;;;;;;;;;4955135;29;20089;-65
2022/04/15 13:59:05;;;;;;;10.68;6.32;;;;;;;;;;4949643;29;20554;-65
2022/04/15 14:01:35;;;;;;;8.45;6.05;;;;;;;;;;4934773;29;20060;-65
2022/04/15 14:04:02;;;;;;;9.02;5.45;;;;;;;;;;4947479;29;20054;-65
2022/04/15 14:06:28;;;;;;;9.35;5.60;;;;;;;;;;4955270;29;20714;-65
2022/04/15 14:08:54;;;;;;;8.68;5.60;;;;;;;;;;4954296;29;20434;-65
2022/04/15 14:11:22;;;;;;;8.82;6.10;;;;;;;;;;4953849;29;20186;-65
2022/04/15 14:13:49;;;;;;;7.90;5.35;;;;;;;;;;4955429;28;20047;-65
2022/04/15 14:16:15;;;;;;;9.75;5.35;;;;;;;;;;4954828;28;20035;-65
2022/04/15 14:18:41;;;;;;;6.95;5.30;;;;;;;;;;4955076;29;20050;-65
2022/04/15 14:21:09;;;;;;;8.88;6.45;;;;;;;;;;4955256;29;20126;-65
2022/04/15 14:23:35;;;;;;;8.90;5.45;;;;;;;;;;4954479;28;20051;-65
2022/04/15 14:26:01;;;;;;;7.10;5.28;;;;;;;;;;4948038;29;20047;-65
2022/04/15 14:28:30;;;;;;;10.85;5.43;;;;;;;;;;4936029;29;20455;-65
2022/04/15 14:30:56;;;;;;;6.90;4.97;;;;;;;;;;4935369;29;20107;-65
2022/04/15 14:33:22;;;;;;;7.40;5.10;;;;;;;;;;4936104;29;20035;-65
2022/04/15 14:35:48;;;;;;;9.02;5.10;;;;;;;;;;4936021;29;20120;-65
2022/04/15 14:38:14;;;;;;;8.05;5.90;;;;;;;;;;4934505;29;20047;-65
2022/04/15 14:40:40;;;;;;;10.18;5.85;;;;;;;;;;4933860;29;20039;-65
2022/04/15 14:43:07;;;;;;;6.07;5.05;;;;;;;;;;4935539;29;20122;-65